Time;durP1;ratioP1;P1;durP2;ratioP2;P2;SDS_P1;SDS_P2;PMS_P1;PMS_P2;Temp;Humidity;BMP_temperature;BMP_pressure;BME280_temperature;BME280_humidity;BME280_pressure;Samples;Min_cycle;Max_cycle;Signal;HPM_P1;HPM_P2
2022/03/03 00:01:51;;;;;;;131.23;53.67;;;;;;;;;;5050315;28;20319;-64
2022/03/03 00:04:17;;;;;;;133.23;51.20;;;;;;;;;;5050523;28;20400;-64
2022/03/03 00:06:44;;;;;;;131.90;51.97;;;;;;;;;;5050832;28;20085;-64
2022/03/03 00:09:11;;;;;;;124.83;49.67;;;;;;;;;;5050326;28;20372;-64
2022/03/03 00:11:38;;;;;;;115.03;48.93;;;;;;;;;;5049249;28;20664;-64
2022/03/03 00:14:04;;;;;;;121.57;51.80;;;;;;;;;;5050063;28;20290;-64
2022/03/03 00:16:30;;;;;;;127.57;49.10;;;;;;;;;;5050184;28;20382;-64
2022/03/03 00:18:56;;;;;;;120.50;52.00;;;;;;;;;;5050134;28;20310;-64
2022/03/03 00:21:22;;;;;;;128.13;51.27;;;;;;;;;;5049896;28;20291;-64
2022/03/03 00:23:48;;;;;;;126.80;50.17;;;;;;;;;;5049945;28;20049;-64
2022/03/03 00:26:14;;;;;;;129.87;50.23;;;;;;;;;;5050032;28;20311;-64
2022/03/03 00:28:40;;;;;;;109.93;49.13;;;;;;;;;;5050129;28;20292;-64
2022/03/03 00:31:07;;;;;;;115.90;47.03;;;;;;;;;;5049643;28;20294;-64
2022/03/03 00:33:33;;;;;;;107.87;46.70;;;;;;;;;;5049874;28;20057;-64
2022/03/03 00:35:59;;;;;;;114.13;46.47;;;;;;;;;;5049356;28;20314;-64
2022/03/03 00:38:25;;;;;;;127.07;48.63;;;;;;;;;;5049925;28;20342;-63
2022/03/03 00:40:51;;;;;;;122.37;49.00;;;;;;;;;;5049992;28;20860;-64
2022/03/03 00:43:17;;;;;;;112.67;47.17;;;;;;;;;;5049314;28;20349;-64
2022/03/03 00:45:43;;;;;;;122.70;50.50;;;;;;;;;;5049636;28;20781;-64
2022/03/03 00:48:09;;;;;;;117.33;48.50;;;;;;;;;;5049826;28;20291;-64
2022/03/03 00:50:35;;;;;;;110.87;47.57;;;;;;;;;;5048807;28;20092;-64
2022/03/03 00:53:01;;;;;;;113.43;49.40;;;;;;;;;;5049526;28;20323;-64
2022/03/03 00:55:27;;;;;;;110.33;48.47;;;;;;;;;;5050342;28;20306;-64
2022/03/03 00:57:53;;;;;;;115.90;49.00;;;;;;;;;;5049641;28;20314;-64
2022/03/03 01:00:19;;;;;;;119.50;48.40;;;;;;;;;;5049920;28;20287;-64
2022/03/03 01:02:49;;;;;;;112.27;44.57;;;;;;;;;;5048912;28;20295;-64
2022/03/03 01:05:15;;;;;;;121.37;46.70;;;;;;;;;;5048423;28;20370;-64
2022/03/03 01:07:41;;;;;;;112.53;45.50;;;;;;;;;;5048810;28;20429;-64
2022/03/03 01:10:08;;;;;;;111.87;46.03;;;;;;;;;;5048923;28;20322;-64
2022/03/03 01:12:34;;;;;;;106.70;43.83;;;;;;;;;;5049176;28;20287;-63
2022/03/03 01:15:01;;;;;;;102.47;42.47;;;;;;;;;;5049209;28;20287;-64
2022/03/03 01:17:27;;;;;;;107.33;45.80;;;;;;;;;;5049180;28;20824;-64
2022/03/03 01:19:53;;;;;;;113.13;46.40;;;;;;;;;;5048433;28;20287;-64
2022/03/03 01:22:19;;;;;;;106.47;46.03;;;;;;;;;;5047762;28;20543;-64
2022/03/03 01:24:45;;;;;;;105.23;43.70;;;;;;;;;;5048981;28;20290;-64
2022/03/03 01:27:11;;;;;;;111.10;43.87;;;;;;;;;;5048898;28;20295;-64
2022/03/03 01:29:37;;;;;;;121.43;48.07;;;;;;;;;;5049014;28;20360;-64
2022/03/03 01:32:04;;;;;;;106.00;43.43;;;;;;;;;;5048748;28;20298;-64
2022/03/03 01:34:30;;;;;;;121.17;48.83;;;;;;;;;;5049240;28;20295;-64
2022/03/03 01:36:56;;;;;;;111.60;45.00;;;;;;;;;;5049273;28;20311;-64
2022/03/03 01:39:22;;;;;;;103.77;43.83;;;;;;;;;;5049021;28;20683;-64
2022/03/03 01:41:48;;;;;;;108.97;43.23;;;;;;;;;;5048738;28;20283;-64
2022/03/03 01:44:14;;;;;;;106.57;44.73;;;;;;;;;;5048689;28;20386;-64
2022/03/03 01:46:53;;;;;;;113.27;44.13;;;;;;;;;;5048969;28;20291;-64
2022/03/03 01:49:20;;;;;;;104.27;41.50;;;;;;;;;;5048675;28;20645;-64
2022/03/03 01:51:46;;;;;;;105.83;41.30;;;;;;;;;;5048727;28;20840;-64
2022/03/03 01:54:12;;;;;;;101.80;40.73;;;;;;;;;;5048151;28;20327;-64
2022/03/03 01:56:40;;;;;;;93.80;38.73;;;;;;;;;;5048067;28;20801;-64
2022/03/03 01:59:06;;;;;;;83.03;36.53;;;;;;;;;;5048516;28;20283;-64
2022/03/03 02:01:32;;;;;;;77.30;36.27;;;;;;;;;;5048414;28;20275;-64
2022/03/03 02:03:59;;;;;;;79.70;35.63;;;;;;;;;;5048055;28;20287;-64
2022/03/03 02:06:25;;;;;;;77.47;34.50;;;;;;;;;;5048060;28;20371;-64
2022/03/03 02:08:54;;;;;;;80.53;34.50;;;;;;;;;;5047804;28;20700;-64
2022/03/03 02:11:21;;;;;;;80.23;35.70;;;;;;;;;;5048403;28;20378;-64
2022/03/03 02:13:47;;;;;;;75.83;34.93;;;;;;;;;;5047750;28;20349;-64
2022/03/03 02:16:13;;;;;;;78.43;34.50;;;;;;;;;;5048149;28;20296;-64
2022/03/03 02:18:40;;;;;;;80.67;35.93;;;;;;;;;;5047544;28;20361;-64
2022/03/03 02:21:06;;;;;;;82.33;33.43;;;;;;;;;;5048242;28;20370;-64
2022/03/03 02:23:32;;;;;;;79.23;36.63;;;;;;;;;;5048102;28;20747;-64
2022/03/03 02:25:58;;;;;;;76.30;33.93;;;;;;;;;;5048079;28;20041;-63
2022/03/03 02:28:24;;;;;;;76.90;35.53;;;;;;;;;;5047920;28;20396;-64
2022/03/03 02:30:50;;;;;;;76.33;34.63;;;;;;;;;;5047857;28;20777;-63
2022/03/03 02:33:16;;;;;;;79.90;35.27;;;;;;;;;;5047227;28;20618;-64
2022/03/03 02:35:42;;;;;;;75.07;34.50;;;;;;;;;;5047175;28;20334;-64
2022/03/03 02:38:08;;;;;;;69.60;34.57;;;;;;;;;;5047571;28;20044;-64
2022/03/03 02:40:34;;;;;;;74.43;35.10;;;;;;;;;;5048006;28;20071;-64
2022/03/03 02:43:00;;;;;;;78.00;35.07;;;;;;;;;;5047865;28;20283;-64
2022/03/03 02:45:26;;;;;;;81.73;35.93;;;;;;;;;;5047539;28;20582;-64
2022/03/03 02:47:52;;;;;;;76.97;35.50;;;;;;;;;;5047825;28;20066;-64
2022/03/03 02:50:20;;;;;;;81.60;35.87;;;;;;;;;;5047579;28;20773;-64
2022/03/03 02:52:46;;;;;;;68.83;33.07;;;;;;;;;;5046444;28;20284;-64
2022/03/03 02:55:12;;;;;;;72.13;34.17;;;;;;;;;;5039352;28;20367;-64
2022/03/03 02:57:54;;;;;;;66.17;30.77;;;;;;;;;;5029087;28;20379;-64
2022/03/03 03:00:21;;;;;;;75.93;30.27;;;;;;;;;;5029240;28;20061;-63
2022/03/03 03:02:47;;;;;;;74.47;33.30;;;;;;;;;;5028755;28;20292;-64
2022/03/03 03:05:13;;;;;;;64.77;31.77;;;;;;;;;;5036613;28;20291;-63
2022/03/03 03:07:39;;;;;;;78.13;34.53;;;;;;;;;;5048277;28;20291;-64
2022/03/03 03:10:06;;;;;;;81.87;35.70;;;;;;;;;;5047673;28;20378;-64
2022/03/03 03:12:32;;;;;;;74.20;33.27;;;;;;;;;;5048685;28;20178;-64
2022/03/03 03:14:58;;;;;;;70.93;31.43;;;;;;;;;;5048086;28;20779;-64
2022/03/03 03:17:25;;;;;;;74.63;33.00;;;;;;;;;;5048226;28;20307;-64
2022/03/03 03:19:51;;;;;;;64.00;30.23;;;;;;;;;;5048744;28;20287;-64
2022/03/03 03:22:17;;;;;;;66.53;31.03;;;;;;;;;;5048157;28;20349;-64
2022/03/03 03:24:43;;;;;;;71.30;32.40;;;;;;;;;;5048435;28;20785;-64
2022/03/03 03:27:09;;;;;;;70.70;32.93;;;;;;;;;;5047464;28;20918;-64
2022/03/03 03:29:35;;;;;;;76.17;31.63;;;;;;;;;;5028409;28;20049;-64
2022/03/03 03:32:01;;;;;;;74.80;33.43;;;;;;;;;;5028057;28;20403;-64
2022/03/03 03:34:27;;;;;;;66.67;30.63;;;;;;;;;;5028469;28;20048;-63
2022/03/03 03:36:53;;;;;;;65.23;30.27;;;;;;;;;;5028370;28;20308;-64
2022/03/03 03:39:19;;;;;;;63.63;30.77;;;;;;;;;;5027917;28;20280;-64
2022/03/03 03:41:45;;;;;;;66.03;31.60;;;;;;;;;;5047490;28;20295;-64
2022/03/03 03:44:12;;;;;;;66.33;30.00;;;;;;;;;;5048476;28;20773;-64
2022/03/03 03:46:38;;;;;;;65.97;30.53;;;;;;;;;;5050751;28;20292;-64
2022/03/03 03:49:05;;;;;;;67.87;31.67;;;;;;;;;;5051283;28;20798;-64
2022/03/03 03:51:31;;;;;;;68.50;31.37;;;;;;;;;;5051451;28;20704;-63
2022/03/03 03:53:57;;;;;;;71.40;31.80;;;;;;;;;;5039072;28;20786;-64
2022/03/03 03:56:23;;;;;;;61.27;30.23;;;;;;;;;;5051260;28;20307;-64
2022/03/03 03:58:50;;;;;;;63.47;31.83;;;;;;;;;;5051446;28;20279;-64
2022/03/03 04:01:17;;;;;;;59.90;32.07;;;;;;;;;;5041080;28;20413;-64
2022/03/03 04:03:43;;;;;;;67.67;33.93;;;;;;;;;;5031375;28;20281;-64
2022/03/03 04:06:09;;;;;;;69.73;32.57;;;;;;;;;;5031521;28;20288;-64
2022/03/03 04:08:36;;;;;;;64.90;31.57;;;;;;;;;;5030738;28;20284;-64
2022/03/03 04:11:03;;;;;;;68.40;32.43;;;;;;;;;;5041888;28;20299;-64
2022/03/03 04:13:29;;;;;;;67.80;31.80;;;;;;;;;;5051266;28;20284;-64
2022/03/03 04:15:55;;;;;;;56.40;28.77;;;;;;;;;;5051239;28;20287;-63
2022/03/03 04:18:21;;;;;;;57.20;28.77;;;;;;;;;;5051342;28;20336;-64
2022/03/03 04:20:47;;;;;;;64.40;30.07;;;;;;;;;;5051047;28;20291;-64
2022/03/03 04:23:17;;;;;;;59.30;30.87;;;;;;;;;;5050874;28;20292;-64
2022/03/03 04:25:43;;;;;;;60.37;30.50;;;;;;;;;;5036180;28;20061;-63
2022/03/03 04:28:09;;;;;;;62.33;29.13;;;;;;;;;;5030363;28;20288;-63
2022/03/03 04:30:35;;;;;;;58.53;28.53;;;;;;;;;;5030876;28;20310;-63
2022/03/03 04:33:01;;;;;;;62.43;29.67;;;;;;;;;;5030559;28;20284;-63
2022/03/03 04:35:28;;;;;;;62.47;30.50;;;;;;;;;;5030897;28;20280;-63
2022/03/03 04:37:54;;;;;;;60.77;28.53;;;;;;;;;;5030489;28;20518;-64
2022/03/03 04:40:21;;;;;;;56.57;30.37;;;;;;;;;;5042520;28;20287;-63
2022/03/03 04:42:47;;;;;;;58.43;29.30;;;;;;;;;;5050576;28;20284;-63
2022/03/03 04:45:13;;;;;;;58.00;28.53;;;;;;;;;;5050632;28;20386;-64
2022/03/03 04:47:39;;;;;;;58.10;28.97;;;;;;;;;;5049436;28;20045;-64
2022/03/03 04:50:05;;;;;;;58.13;29.67;;;;;;;;;;5050315;28;20469;-64
2022/03/03 04:52:31;;;;;;;56.03;30.30;;;;;;;;;;5050047;28;20291;-64
2022/03/03 04:54:57;;;;;;;56.87;28.97;;;;;;;;;;5050140;28;20631;-64
2022/03/03 04:57:23;;;;;;;62.50;30.50;;;;;;;;;;5050179;28;20048;-64
2022/03/03 04:59:49;;;;;;;67.50;31.90;;;;;;;;;;5050155;28;20466;-64
2022/03/03 05:02:15;;;;;;;56.10;31.50;;;;;;;;;;5049601;28;20288;-64
2022/03/03 05:04:41;;;;;;;56.30;29.47;;;;;;;;;;5050292;28;20437;-64
2022/03/03 05:07:07;;;;;;;62.50;32.33;;;;;;;;;;5050172;28;20052;-64
2022/03/03 05:09:33;;;;;;;59.00;30.87;;;;;;;;;;5049628;28;20288;-64
2022/03/03 05:11:59;;;;;;;60.83;31.73;;;;;;;;;;5050188;28;20498;-63
2022/03/03 05:14:26;;;;;;;63.00;30.90;;;;;;;;;;5049793;28;20661;-63
2022/03/03 05:16:52;;;;;;;61.57;31.37;;;;;;;;;;5049715;28;20376;-63
2022/03/03 05:19:18;;;;;;;52.67;29.07;;;;;;;;;;5050055;28;20774;-64
2022/03/03 05:21:44;;;;;;;59.83;30.97;;;;;;;;;;5049772;28;20366;-63
2022/03/03 05:24:10;;;;;;;56.70;28.07;;;;;;;;;;5049548;28;20061;-63
2022/03/03 05:26:36;;;;;;;56.40;27.67;;;;;;;;;;5049711;28;20287;-64
2022/03/03 05:29:02;;;;;;;56.90;30.37;;;;;;;;;;5049571;28;20049;-63
2022/03/03 05:31:28;;;;;;;60.33;30.70;;;;;;;;;;5049486;28;20056;-64
2022/03/03 05:33:54;;;;;;;57.97;30.20;;;;;;;;;;5038486;28;20298;-64
2022/03/03 05:36:20;;;;;;;59.60;29.20;;;;;;;;;;5049143;28;20124;-63
2022/03/03 05:38:46;;;;;;;56.17;29.70;;;;;;;;;;5047743;28;20570;-64
2022/03/03 05:41:12;;;;;;;52.90;27.93;;;;;;;;;;5049284;28;20363;-63
2022/03/03 05:43:38;;;;;;;63.33;30.53;;;;;;;;;;5049345;28;20053;-64
2022/03/03 05:46:04;;;;;;;53.40;28.30;;;;;;;;;;5049437;28;20366;-64
2022/03/03 05:48:30;;;;;;;54.93;29.83;;;;;;;;;;5049521;28;20291;-63
2022/03/03 05:50:56;;;;;;;54.97;29.23;;;;;;;;;;5049116;28;20288;-63
2022/03/03 05:53:23;;;;;;;60.93;28.27;;;;;;;;;;5049361;28;20327;-63
2022/03/03 05:55:53;;;;;;;48.03;26.47;;;;;;;;;;5049385;28;20778;-63
2022/03/03 05:58:20;;;;;;;53.53;26.93;;;;;;;;;;5049457;28;20287;-64
2022/03/03 06:00:48;;;;;;;50.00;28.03;;;;;;;;;;5048919;28;20307;-63
2022/03/03 06:03:15;;;;;;;52.00;27.40;;;;;;;;;;5049204;28;20276;-64
2022/03/03 06:05:42;;;;;;;56.53;29.57;;;;;;;;;;5048812;28;20287;-64
2022/03/03 06:08:12;;;;;;;52.93;28.97;;;;;;;;;;5048254;28;20661;-64
2022/03/03 06:10:41;;;;;;;57.00;28.90;;;;;;;;;;5049127;28;20284;-64
2022/03/03 06:13:12;;;;;;;58.27;28.67;;;;;;;;;;5048727;28;20793;-63
2022/03/03 06:15:38;;;;;;;59.40;29.50;;;;;;;;;;5049012;28;20370;-64
2022/03/03 06:18:04;;;;;;;51.67;28.90;;;;;;;;;;5048728;28;20311;-64
2022/03/03 06:20:31;;;;;;;57.43;30.43;;;;;;;;;;5048491;28;20291;-64
2022/03/03 06:22:57;;;;;;;61.43;31.60;;;;;;;;;;5048509;28;21006;-63
2022/03/03 06:25:23;;;;;;;53.27;27.87;;;;;;;;;;5048987;28;20285;-63
2022/03/03 06:27:49;;;;;;;50.93;28.40;;;;;;;;;;5048607;28;20037;-63
2022/03/03 06:30:15;;;;;;;50.20;27.77;;;;;;;;;;5047933;28;20538;-63
2022/03/03 06:32:41;;;;;;;54.43;30.97;;;;;;;;;;5048584;28;20295;-63
2022/03/03 06:35:08;;;;;;;50.53;27.57;;;;;;;;;;5048669;28;20292;-63
2022/03/03 06:37:34;;;;;;;51.40;28.30;;;;;;;;;;5048739;28;20545;-63
2022/03/03 06:40:00;;;;;;;54.43;29.60;;;;;;;;;;5048545;28;20296;-63
2022/03/03 06:42:26;;;;;;;54.27;27.97;;;;;;;;;;5048439;28;20348;-63
2022/03/03 06:44:54;;;;;;;53.57;29.20;;;;;;;;;;5048636;28;20275;-63
2022/03/03 06:47:20;;;;;;;56.17;29.73;;;;;;;;;;5048369;28;20291;-63
2022/03/03 06:49:47;;;;;;;50.30;27.40;;;;;;;;;;5048228;28;20284;-64
2022/03/03 06:52:15;;;;;;;55.57;28.07;;;;;;;;;;5048437;28;20283;-63
2022/03/03 06:54:43;;;;;;;55.37;27.43;;;;;;;;;;5047963;28;20366;-63
2022/03/03 06:57:10;;;;;;;52.17;26.07;;;;;;;;;;5048204;28;20311;-63
2022/03/03 06:59:37;;;;;;;54.03;28.50;;;;;;;;;;5046645;28;20299;-63
2022/03/03 07:02:04;;;;;;;53.03;28.90;;;;;;;;;;5046247;28;20379;-64
2022/03/03 07:04:33;;;;;;;58.37;29.30;;;;;;;;;;5048113;28;20299;-63
2022/03/03 07:07:00;;;;;;;55.73;30.13;;;;;;;;;;5042174;28;20374;-64
2022/03/03 07:09:26;;;;;;;50.93;27.60;;;;;;;;;;5047879;28;20291;-63
2022/03/03 07:11:52;;;;;;;53.97;27.17;;;;;;;;;;5044774;28;20306;-64
2022/03/03 07:14:19;;;;;;;50.33;27.70;;;;;;;;;;5044162;28;20294;-64
2022/03/03 07:16:47;;;;;;;57.13;30.70;;;;;;;;;;5047877;28;20120;-64
2022/03/03 07:19:29;;;;;;;56.67;30.03;;;;;;;;;;5047821;28;20306;-64
2022/03/03 07:21:57;;;;;;;53.00;28.40;;;;;;;;;;5051202;28;20330;-63
2022/03/03 07:24:34;;;;;;;58.83;30.73;;;;;;;;;;5052064;28;20284;-63
2022/03/03 07:27:01;;;;;;;54.10;29.63;;;;;;;;;;5050135;28;21039;-64
2022/03/03 07:29:29;;;;;;;58.23;29.53;;;;;;;;;;5051284;28;20330;-64
2022/03/03 07:31:55;;;;;;;56.07;28.07;;;;;;;;;;5069343;28;20295;-64
2022/03/03 07:34:26;;;;;;;52.23;29.23;;;;;;;;;;5055578;28;20331;-64
2022/03/03 07:36:56;;;;;;;52.30;31.60;;;;;;;;;;5051721;28;20394;-64
2022/03/03 07:39:23;;;;;;;55.97;28.70;;;;;;;;;;5051815;28;20349;-64
2022/03/03 07:41:49;;;;;;;51.73;29.00;;;;;;;;;;5051708;28;20295;-64
2022/03/03 07:44:15;;;;;;;47.17;28.80;;;;;;;;;;5052779;28;20322;-64
2022/03/03 07:46:41;;;;;;;50.60;29.00;;;;;;;;;;5052444;28;20327;-64
2022/03/03 07:49:09;;;;;;;55.00;28.17;;;;;;;;;;5053366;28;20040;-64
2022/03/03 07:51:35;;;;;;;53.17;29.40;;;;;;;;;;5051889;28;20295;-64
2022/03/03 07:54:02;;;;;;;45.93;27.77;;;;;;;;;;5051456;28;20349;-64
2022/03/03 07:56:29;;;;;;;42.20;26.17;;;;;;;;;;5054900;28;20303;-64
2022/03/03 07:59:04;;;;;;;42.37;26.03;;;;;;;;;;5050701;28;20341;-64
2022/03/03 08:01:32;;;;;;;49.07;28.00;;;;;;;;;;5051362;28;20280;-64
2022/03/03 08:04:00;;;;;;;47.97;27.27;;;;;;;;;;5050119;28;20849;-64
2022/03/03 08:06:26;;;;;;;47.47;28.70;;;;;;;;;;5051553;28;20375;-64
2022/03/03 08:08:53;;;;;;;41.97;25.30;;;;;;;;;;5052086;28;20631;-64
2022/03/03 08:11:19;;;;;;;42.97;27.43;;;;;;;;;;5061275;28;20299;-64
2022/03/03 08:13:46;;;;;;;41.20;25.53;;;;;;;;;;5061860;28;20292;-64
2022/03/03 08:16:12;;;;;;;42.13;25.90;;;;;;;;;;5051066;28;20386;-64
2022/03/03 08:18:38;;;;;;;45.10;27.00;;;;;;;;;;5071206;28;20374;-64
2022/03/03 08:21:06;;;;;;;43.00;26.57;;;;;;;;;;5070634;28;20040;-65
2022/03/03 08:23:32;;;;;;;40.67;25.10;;;;;;;;;;5066750;28;20288;-64
2022/03/03 08:25:59;;;;;;;42.63;25.37;;;;;;;;;;5057046;28;20765;-64
2022/03/03 08:28:25;;;;;;;37.37;24.97;;;;;;;;;;5050832;28;20326;-65
2022/03/03 08:30:52;;;;;;;42.53;25.77;;;;;;;;;;5049480;28;21217;-64
2022/03/03 08:33:25;;;;;;;37.10;23.77;;;;;;;;;;5049381;28;20120;-65
2022/03/03 08:35:55;;;;;;;40.37;27.27;;;;;;;;;;5050077;28;20306;-65
2022/03/03 08:38:34;;;;;;;39.60;25.00;;;;;;;;;;5049811;28;20891;-65
2022/03/03 08:41:00;;;;;;;39.20;23.73;;;;;;;;;;5049666;28;20374;-65
2022/03/03 08:43:28;;;;;;;38.03;24.00;;;;;;;;;;5051557;28;20288;-65
2022/03/03 08:45:56;;;;;;;39.93;25.13;;;;;;;;;;5050040;28;21061;-65
2022/03/03 08:48:24;;;;;;;34.67;23.80;;;;;;;;;;5049729;28;20288;-65
2022/03/03 08:50:50;;;;;;;39.33;24.80;;;;;;;;;;5049574;28;20788;-65
2022/03/03 08:53:17;;;;;;;33.77;22.83;;;;;;;;;;5051493;28;20147;-65
2022/03/03 08:55:43;;;;;;;35.73;24.03;;;;;;;;;;5049952;28;20294;-65
2022/03/03 08:58:10;;;;;;;41.43;24.77;;;;;;;;;;5061553;28;20318;-65
2022/03/03 09:00:37;;;;;;;36.33;22.40;;;;;;;;;;5049837;28;20378;-65
2022/03/03 09:03:04;;;;;;;34.23;21.70;;;;;;;;;;5054965;28;20106;-65
2022/03/03 09:05:30;;;;;;;40.07;23.30;;;;;;;;;;5051925;28;20739;-65
2022/03/03 09:07:56;;;;;;;32.37;21.40;;;;;;;;;;5049775;28;20099;-65
2022/03/03 09:10:22;;;;;;;31.43;21.80;;;;;;;;;;5053658;28;20278;-66
2022/03/03 09:12:48;;;;;;;34.30;22.47;;;;;;;;;;5058417;28;20040;-66
2022/03/03 09:15:15;;;;;;;36.43;23.57;;;;;;;;;;5049198;28;20280;-65
2022/03/03 09:17:41;;;;;;;33.07;21.20;;;;;;;;;;5050071;28;20045;-65
2022/03/03 09:20:08;;;;;;;31.30;20.33;;;;;;;;;;5049017;28;20346;-66
2022/03/03 09:22:35;;;;;;;29.40;19.67;;;;;;;;;;5048864;28;20276;-66
2022/03/03 09:25:01;;;;;;;26.23;17.27;;;;;;;;;;5049041;28;20045;-66
2022/03/03 09:27:27;;;;;;;31.37;17.83;;;;;;;;;;5048705;28;20041;-66
2022/03/03 09:29:53;;;;;;;28.67;18.73;;;;;;;;;;5049513;28;20144;-65
2022/03/03 09:32:19;;;;;;;28.33;18.20;;;;;;;;;;5048643;28;20041;-65
2022/03/03 09:34:45;;;;;;;25.33;16.40;;;;;;;;;;5048898;28;20041;-66
2022/03/03 09:37:12;;;;;;;26.43;16.87;;;;;;;;;;5048707;28;20739;-66
2022/03/03 09:39:38;;;;;;;26.03;16.37;;;;;;;;;;5048919;28;20160;-66
2022/03/03 09:42:05;;;;;;;25.47;15.13;;;;;;;;;;5048834;28;20157;-66
2022/03/03 09:44:31;;;;;;;19.17;14.87;;;;;;;;;;5046850;28;20052;-66
2022/03/03 09:46:57;;;;;;;22.80;16.17;;;;;;;;;;5048295;28;20517;-65
2022/03/03 09:49:23;;;;;;;22.37;14.90;;;;;;;;;;5048232;28;20419;-66
2022/03/03 09:51:50;;;;;;;23.00;15.40;;;;;;;;;;5048460;28;20048;-65
2022/03/03 09:54:16;;;;;;;26.67;15.03;;;;;;;;;;5045534;28;20551;-66
2022/03/03 09:56:42;;;;;;;24.53;16.13;;;;;;;;;;5047237;28;20048;-66
2022/03/03 09:59:08;;;;;;;21.87;14.90;;;;;;;;;;5047113;28;20120;-66
2022/03/03 10:01:35;;;;;;;22.37;15.70;;;;;;;;;;5048092;28;20049;-64
2022/03/03 10:04:19;;;;;;;23.87;14.90;;;;;;;;;;5047196;28;20081;-63
2022/03/03 10:06:45;;;;;;;19.43;14.40;;;;;;;;;;5047081;28;20112;-63
2022/03/03 10:09:12;;;;;;;21.03;14.57;;;;;;;;;;5047102;28;20056;-63
2022/03/03 10:11:58;;;;;;;21.57;14.40;;;;;;;;;;5048578;28;20525;-63
2022/03/03 10:14:29;;;;;;;17.60;13.70;;;;;;;;;;5046407;28;20056;-63
2022/03/03 10:16:55;;;;;;;19.83;14.03;;;;;;;;;;5048112;28;20758;-63
2022/03/03 10:19:21;;;;;;;20.13;12.57;;;;;;;;;;5042652;28;20053;-63
2022/03/03 10:21:47;;;;;;;19.03;12.83;;;;;;;;;;5042248;28;20048;-63
2022/03/03 10:24:17;;;;;;;19.83;13.03;;;;;;;;;;5045434;28;20048;-63
2022/03/03 10:26:44;;;;;;;17.43;12.77;;;;;;;;;;5036340;28;20128;-63
2022/03/03 10:29:20;;;;;;;17.80;12.83;;;;;;;;;;5041198;28;20060;-63
2022/03/03 10:31:51;;;;;;;19.53;14.37;;;;;;;;;;5039724;28;20049;-63
2022/03/03 10:34:21;;;;;;;17.67;13.53;;;;;;;;;;5041941;28;20553;-64
2022/03/03 10:37:04;;;;;;;16.50;13.07;;;;;;;;;;5040647;28;20403;-64
2022/03/03 10:39:43;;;;;;;20.17;14.17;;;;;;;;;;5043432;28;20158;-64
2022/03/03 10:42:14;;;;;;;18.77;13.37;;;;;;;;;;5047617;28;20151;-64
2022/03/03 10:44:40;;;;;;;20.73;13.10;;;;;;;;;;5046434;28;20048;-63
2022/03/03 10:47:07;;;;;;;16.60;12.77;;;;;;;;;;5044764;28;20041;-63
2022/03/03 10:49:37;;;;;;;18.97;13.30;;;;;;;;;;5048479;28;20041;-64
2022/03/03 10:52:11;;;;;;;18.93;13.13;;;;;;;;;;5046377;28;20044;-64
2022/03/03 10:54:49;;;;;;;17.70;13.17;;;;;;;;;;5048208;28;20506;-64
2022/03/03 10:57:31;;;;;;;17.13;12.83;;;;;;;;;;5051011;28;20477;-64
2022/03/03 11:00:00;;;;;;;17.67;13.30;;;;;;;;;;5052055;28;20139;-64
2022/03/03 11:02:28;;;;;;;19.57;12.90;;;;;;;;;;5048711;28;20049;-64
2022/03/03 11:04:54;;;;;;;18.47;13.60;;;;;;;;;;5051067;28;20467;-64
2022/03/03 11:07:21;;;;;;;18.03;13.43;;;;;;;;;;5050600;28;20076;-63
2022/03/03 11:09:48;;;;;;;19.40;14.40;;;;;;;;;;5042438;28;20072;-64
2022/03/03 11:12:14;;;;;;;18.97;13.40;;;;;;;;;;5050444;28;20045;-64
2022/03/03 11:14:40;;;;;;;20.77;13.63;;;;;;;;;;5051075;28;20561;-64
2022/03/03 11:17:07;;;;;;;17.07;12.53;;;;;;;;;;5047597;28;20047;-64
2022/03/03 11:19:33;;;;;;;17.60;13.13;;;;;;;;;;5049340;28;20045;-64
2022/03/03 11:21:59;;;;;;;15.77;12.37;;;;;;;;;;5050550;28;20052;-64
2022/03/03 11:24:26;;;;;;;17.87;13.83;;;;;;;;;;5052024;28;20081;-64
2022/03/03 11:26:52;;;;;;;17.70;13.13;;;;;;;;;;5049341;28;20102;-64
2022/03/03 11:29:20;;;;;;;16.07;12.07;;;;;;;;;;5049072;28;20044;-64
2022/03/03 11:32:00;;;;;;;15.73;11.80;;;;;;;;;;5049345;28;20080;-64
2022/03/03 11:34:30;;;;;;;18.07;13.37;;;;;;;;;;5049315;28;20126;-64
2022/03/03 11:37:02;;;;;;;16.17;12.53;;;;;;;;;;5050060;28;20132;-64
2022/03/03 11:39:42;;;;;;;15.97;11.53;;;;;;;;;;5049705;28;20053;-64
2022/03/03 11:42:19;;;;;;;16.47;12.37;;;;;;;;;;5037823;28;20071;-64
2022/03/03 11:44:45;;;;;;;14.37;11.17;;;;;;;;;;5042206;28;21692;-64
2022/03/03 11:47:22;;;;;;;15.90;11.60;;;;;;;;;;5045201;28;20495;-65
2022/03/03 11:50:06;;;;;;;13.53;11.03;;;;;;;;;;5051503;28;20048;-65
2022/03/03 11:52:37;;;;;;;15.80;11.20;;;;;;;;;;5046210;28;20045;-65
2022/03/03 11:55:22;;;;;;;15.77;11.70;;;;;;;;;;5046013;28;20087;-65
2022/03/03 11:57:48;;;;;;;12.77;10.53;;;;;;;;;;5044091;28;20075;-65
2022/03/03 12:00:18;;;;;;;14.10;10.80;;;;;;;;;;5043883;28;20056;-65
2022/03/03 12:02:53;;;;;;;12.47;9.63;;;;;;;;;;5044862;28;20045;-65
2022/03/03 12:05:29;;;;;;;14.27;11.20;;;;;;;;;;5037276;28;20051;-65
2022/03/03 12:07:58;;;;;;;14.50;10.27;;;;;;;;;;5045967;28;20041;-64
2022/03/03 12:10:24;;;;;;;14.90;9.97;;;;;;;;;;5046213;28;20094;-65
2022/03/03 12:12:50;;;;;;;13.70;10.37;;;;;;;;;;5050691;28;20044;-65
2022/03/03 12:15:16;;;;;;;13.70;10.67;;;;;;;;;;5048901;28;20041;-64
2022/03/03 12:17:45;;;;;;;12.93;9.63;;;;;;;;;;5049592;28;20044;-65
2022/03/03 12:20:24;;;;;;;12.43;9.60;;;;;;;;;;5049204;28;20132;-65
2022/03/03 12:22:59;;;;;;;9.70;8.07;;;;;;;;;;5049048;28;20056;-65
2022/03/03 12:25:44;;;;;;;9.93;8.83;;;;;;;;;;5050854;28;20128;-65
2022/03/03 12:28:16;;;;;;;11.90;8.47;;;;;;;;;;5046849;28;20418;-65
2022/03/03 12:30:46;;;;;;;11.45;9.88;;;;;;;;;;5047886;28;20059;-65
2022/03/03 12:33:24;;;;;;;9.77;8.43;;;;;;;;;;5046869;28;20094;-65
2022/03/03 12:35:51;;;;;;;13.57;10.53;;;;;;;;;;5051605;28;20047;-64
2022/03/03 12:38:18;;;;;;;11.37;8.60;;;;;;;;;;5049271;28;20045;-65
2022/03/03 12:40:44;;;;;;;12.50;8.30;;;;;;;;;;5054920;28;20053;-65
2022/03/03 12:43:12;;;;;;;11.93;9.20;;;;;;;;;;5030538;28;20383;-65
2022/03/03 12:45:41;;;;;;;10.47;8.93;;;;;;;;;;5030500;28;20507;-64
2022/03/03 12:48:09;;;;;;;11.57;10.07;;;;;;;;;;5030339;28;20495;-65
2022/03/03 12:50:35;;;;;;;12.53;9.43;;;;;;;;;;5030582;28;20072;-65
2022/03/03 12:53:01;;;;;;;14.10;9.20;;;;;;;;;;5030397;28;20818;-65
2022/03/03 12:55:29;;;;;;;10.87;9.37;;;;;;;;;;5030086;28;20045;-65
2022/03/03 12:57:55;;;;;;;11.47;9.33;;;;;;;;;;5030379;28;20046;-65
2022/03/03 13:00:22;;;;;;;11.87;9.03;;;;;;;;;;5030388;28;20615;-65
2022/03/03 13:02:55;;;;;;;13.47;10.00;;;;;;;;;;5029931;28;20038;-65
2022/03/03 13:05:28;;;;;;;11.80;8.67;;;;;;;;;;5030176;28;20096;-65
2022/03/03 13:07:54;;;;;;;12.27;9.20;;;;;;;;;;5032422;28;20099;-65
2022/03/03 13:10:20;;;;;;;12.80;8.83;;;;;;;;;;5049776;28;20088;-65
2022/03/03 13:12:46;;;;;;;14.13;9.20;;;;;;;;;;5049754;28;20087;-65
2022/03/03 13:15:13;;;;;;;11.60;8.57;;;;;;;;;;5049726;28;20467;-65
2022/03/03 13:17:58;;;;;;;10.47;8.17;;;;;;;;;;5049886;28;20159;-65
2022/03/03 13:20:24;;;;;;;8.63;7.30;;;;;;;;;;5049617;28;20729;-65
2022/03/03 13:22:50;;;;;;;9.87;8.73;;;;;;;;;;5049629;28;20037;-65
2022/03/03 13:25:17;;;;;;;11.33;9.63;;;;;;;;;;5049199;28;20051;-65
2022/03/03 13:27:44;;;;;;;11.37;9.50;;;;;;;;;;5049718;28;20072;-65
2022/03/03 13:30:11;;;;;;;11.03;9.37;;;;;;;;;;5049482;28;20084;-65
2022/03/03 13:32:43;;;;;;;13.67;9.57;;;;;;;;;;5049269;28;20087;-65
2022/03/03 13:35:10;;;;;;;10.38;9.27;;;;;;;;;;5048969;28;20055;-65
2022/03/03 13:37:36;;;;;;;13.83;10.00;;;;;;;;;;5049192;28;20081;-65
2022/03/03 13:40:15;;;;;;;11.47;9.77;;;;;;;;;;5048978;28;20075;-65
2022/03/03 13:42:41;;;;;;;12.13;9.20;;;;;;;;;;5048668;28;20418;-65
2022/03/03 13:45:08;;;;;;;12.93;9.57;;;;;;;;;;5049475;28;20124;-65
2022/03/03 13:47:39;;;;;;;16.13;9.90;;;;;;;;;;5049374;28;20144;-65
2022/03/03 13:50:06;;;;;;;11.30;8.97;;;;;;;;;;5048884;28;20045;-65
2022/03/03 13:52:36;;;;;;;10.53;8.53;;;;;;;;;;5048976;28;20087;-65
2022/03/03 13:55:08;;;;;;;10.83;9.73;;;;;;;;;;5048794;28;20095;-65
2022/03/03 13:57:39;;;;;;;12.13;10.13;;;;;;;;;;5049055;28;20063;-65
2022/03/03 14:00:12;;;;;;;10.57;9.10;;;;;;;;;;5048812;28;20052;-65
2022/03/03 14:02:49;;;;;;;12.20;9.70;;;;;;;;;;5048262;28;20049;-65
2022/03/03 14:05:15;;;;;;;11.33;9.30;;;;;;;;;;5048570;28;20056;-65
2022/03/03 14:07:49;;;;;;;11.00;9.60;;;;;;;;;;5048355;28;20092;-65
2022/03/03 14:10:15;;;;;;;11.73;9.63;;;;;;;;;;5048823;28;20176;-65
2022/03/03 14:12:59;;;;;;;11.27;9.20;;;;;;;;;;5048798;28;20056;-64
2022/03/03 14:15:26;;;;;;;9.33;8.33;;;;;;;;;;5048520;28;20415;-64
2022/03/03 14:17:52;;;;;;;11.80;9.50;;;;;;;;;;5048685;28;20470;-65
2022/03/03 14:20:19;;;;;;;11.57;9.70;;;;;;;;;;5048572;28;20037;-64